Time;durP1;ratioP1;P1;durP2;ratioP2;P2;SDS_P1;SDS_P2;PMS_P1;PMS_P2;Temp;Humidity;BMP_temperature;BMP_pressure;BME280_temperature;BME280_humidity;BME280_pressure;Samples;Min_cycle;Max_cycle;Signal;HPM_P1;HPM_P2
2023/03/28 00:00:04;;;;;;;4.37;1.60;;;1.30;99.90;;;;;;6110447;23;20133;-69
2023/03/28 00:02:37;;;;;;;6.73;1.67;;;1.30;99.90;;;;;;6084376;23;20200;-69
2023/03/28 00:05:03;;;;;;;1.87;1.33;;;1.40;99.90;;;;;;6100827;23;20416;-68
2023/03/28 00:07:29;;;;;;;6.23;1.60;;;1.40;99.90;;;;;;6110198;23;20164;-68
2023/03/28 00:09:56;;;;;;;5.53;1.83;;;1.30;99.90;;;;;;6110499;23;20463;-68
2023/03/28 00:12:22;;;;;;;3.80;1.30;;;1.30;99.90;;;;;;6108414;23;20179;-68
2023/03/28 00:14:48;;;;;;;6.60;1.37;;;1.30;99.90;;;;;;6110495;23;20423;-67
2023/03/28 00:17:16;;;;;;;6.73;2.07;;;1.30;99.90;;;;;;6100917;23;20380;-68
2023/03/28 00:19:41;;;;;;;7.83;1.90;;;1.30;99.90;;;;;;6109933;23;20137;-69
2023/03/28 00:22:07;;;;;;;8.73;1.73;;;1.20;99.90;;;;;;6112528;23;20405;-68
2023/03/28 00:24:37;;;;;;;8.07;1.50;;;1.20;99.90;;;;;;6102629;23;20144;-69
2023/03/28 00:27:04;;;;;;;5.27;1.43;;;1.10;99.90;;;;;;6111267;23;20147;-68
2023/03/28 00:29:30;;;;;;;2.70;1.30;;;1.10;99.90;;;;;;6112635;23;20380;-68
2023/03/28 00:31:56;;;;;;;5.63;3.00;;;1.00;99.90;;;;;;6112149;23;20459;-68
2023/03/28 00:34:22;;;;;;;5.17;1.93;;;0.90;99.90;;;;;;6112258;23;20416;-69
2023/03/28 00:36:49;;;;;;;3.10;1.40;;;1.00;99.90;;;;;;6112761;23;20369;-68
2023/03/28 00:39:15;;;;;;;2.83;1.63;;;0.90;99.90;;;;;;6102537;23;20164;-67
2023/03/28 00:41:43;;;;;;;6.23;1.70;;;0.90;99.90;;;;;;6110795;23;20411;-69
2023/03/28 00:44:42;;;;;;;5.17;2.23;;;1.00;99.90;;;;;;6110053;23;20375;-69
2023/03/28 00:47:25;;;;;;;4.43;1.53;;;1.00;99.90;;;;;;6109975;23;20376;-68
2023/03/28 00:49:57;;;;;;;4.80;2.30;;;0.90;99.90;;;;;;6109993;23;20384;-69
2023/03/28 00:52:28;;;;;;;6.37;1.60;;;0.90;99.90;;;;;;6098912;23;20420;-69
2023/03/28 00:54:56;;;;;;;5.10;2.07;;;0.80;99.90;;;;;;6100227;23;20380;-68
2023/03/28 00:57:23;;;;;;;9.07;2.70;;;0.80;99.90;;;;;;6109488;23;20444;-69
2023/03/28 00:59:50;;;;;;;5.73;2.03;;;0.70;99.90;;;;;;6099226;23;20471;-68
2023/03/28 01:02:16;;;;;;;3.30;1.80;;;0.80;99.90;;;;;;6109733;23;20439;-67
2023/03/28 01:04:56;;;;;;;4.60;2.07;;;0.70;99.90;;;;;;6098296;23;20380;-69
2023/03/28 01:07:24;;;;;;;7.20;1.83;;;0.70;99.90;;;;;;6098473;23;20392;-68
2023/03/28 01:09:50;;;;;;;10.77;3.50;;;0.60;99.90;;;;;;6074599;23;20384;-67
2023/03/28 01:12:18;;;;;;;7.13;2.60;;;0.70;99.90;;;;;;6122149;23;20715;-68
2023/03/28 01:14:45;;;;;;;8.50;2.07;;;0.70;99.90;;;;;;6098826;23;20380;-68
2023/03/28 01:17:11;;;;;;;10.33;2.60;;;0.60;99.90;;;;;;6109697;23;20782;-68
2023/03/28 01:19:57;;;;;;;5.93;2.00;;;0.60;99.90;;;;;;6123557;23;20383;-69
2023/03/28 01:22:48;;;;;;;7.70;2.30;;;0.70;99.90;;;;;;6098879;23;20888;-69
2023/03/28 01:25:46;;;;;;;9.40;2.50;;;0.60;99.90;;;;;;6098514;23;20391;-69
2023/03/28 01:28:21;;;;;;;5.20;2.73;;;0.60;99.90;;;;;;6044089;23;20419;-68
2023/03/28 01:31:31;;;;;;;9.33;2.47;;;0.60;99.90;;;;;;6098902;23;20458;-68
2023/03/28 01:34:53;;;;;;;4.20;3.37;;;0.60;99.90;;;;;;6099647;23;20423;-69
2023/03/28 01:37:38;;;;;;;6.03;1.90;;;0.60;99.90;;;;;;6123164;23;20812;-69
2023/03/28 01:40:22;;;;;;;5.40;2.30;;;0.60;99.90;;;;;;6110252;23;20372;-69
2023/03/28 01:43:25;;;;;;;10.83;2.77;;;0.60;99.90;;;;;;6125387;23;20420;-69
2023/03/28 01:46:25;;;;;;;8.07;2.53;;;0.60;99.90;;;;;;6117123;23;20682;-69
2023/03/28 01:49:07;;;;;;;9.73;2.70;;;0.50;99.90;;;;;;6108975;23;20368;-69
2023/03/28 01:51:50;;;;;;;8.30;1.80;;;0.50;99.90;;;;;;6098465;23;20416;-68
2023/03/28 01:54:27;;;;;;;5.50;1.90;;;0.40;99.90;;;;;;6102900;23;20844;-69
2023/03/28 01:57:09;;;;;;;5.80;2.30;;;0.40;99.90;;;;;;6109476;23;20373;-68
2023/03/28 01:59:53;;;;;;;6.60;2.90;;;0.30;99.90;;;;;;6098077;23;20662;-68
2023/03/28 02:02:44;;;;;;;7.90;2.50;;;0.40;99.90;;;;;;6109347;23;20428;-68
2023/03/28 02:05:24;;;;;;;3.13;2.07;;;0.30;99.90;;;;;;6098537;23;20663;-69
2023/03/28 02:07:51;;;;;;;4.77;2.20;;;0.30;99.90;;;;;;6098620;23;20388;-68
2023/03/28 02:10:21;;;;;;;7.80;1.73;;;0.20;99.90;;;;;;6098525;23;20391;-67
2023/03/28 02:13:09;;;;;;;2.53;1.67;;;0.20;99.90;;;;;;6097536;23;20468;-69
2023/03/28 02:15:59;;;;;;;11.30;2.23;;;0.20;99.90;;;;;;6097811;23;20391;-69
2023/03/28 02:18:48;;;;;;;2.60;1.53;;;0.20;99.90;;;;;;6098925;23;20377;-68
2023/03/28 02:21:27;;;;;;;10.27;1.83;;;0.20;99.90;;;;;;6109632;23;20728;-68
2023/03/28 02:24:05;;;;;;;3.43;1.43;;;0.10;99.90;;;;;;6098444;23;20400;-68
2023/03/28 02:26:53;;;;;;;4.37;1.60;;;0.10;99.90;;;;;;6108959;23;20376;-67
2023/03/28 02:29:29;;;;;;;1.77;1.20;;;0.00;99.90;;;;;;6109402;23;20368;-67
2023/03/28 02:31:57;;;;;;;5.53;2.50;;;0.00;99.90;;;;;;6109611;23;20418;-68
2023/03/28 02:34:24;;;;;;;4.87;2.50;;;0.10;99.90;;;;;;6109012;23;20706;-69
2023/03/28 02:36:57;;;;;;;9.30;2.10;;;0.00;99.90;;;;;;6098049;23;20373;-68
2023/03/28 02:39:45;;;;;;;7.83;2.23;;;0.00;99.90;;;;;;6122901;23;20381;-68
2023/03/28 02:42:25;;;;;;;7.30;1.97;;;0.00;99.90;;;;;;6121987;23;20459;-67
2023/03/28 02:45:12;;;;;;;2.30;1.40;;;0.10;99.90;;;;;;6109044;23;20432;-68
2023/03/28 02:48:17;;;;;;;4.30;1.73;;;0.00;99.90;;;;;;6097980;23;20415;-68
2023/03/28 02:51:00;;;;;;;3.33;1.80;;;0.00;99.90;;;;;;6109499;23;20440;-69
2023/03/28 02:53:34;;;;;;;3.87;1.73;;;-0.10;99.90;;;;;;6098302;23;20435;-69
2023/03/28 02:56:25;;;;;;;5.80;1.73;;;-0.10;99.90;;;;;;6098247;23;20665;-68
2023/03/28 02:59:13;;;;;;;4.57;1.83;;;-0.10;99.90;;;;;;6077732;23;20381;-68
2023/03/28 03:01:40;;;;;;;5.63;2.47;;;-0.10;99.90;;;;;;6101978;23;20455;-68
2023/03/28 03:04:06;;;;;;;7.37;2.70;;;0.00;99.90;;;;;;6111047;23;20372;-68
2023/03/28 03:06:33;;;;;;;4.77;1.90;;;-0.10;99.90;;;;;;6100253;23;20686;-67
2023/03/28 03:09:00;;;;;;;5.60;2.03;;;-0.10;99.90;;;;;;6099428;23;20666;-68
2023/03/28 03:11:27;;;;;;;7.03;2.77;;;-0.10;99.90;;;;;;6099597;23;20690;-69
2023/03/28 03:13:53;;;;;;;6.47;1.93;;;-0.20;99.90;;;;;;6110093;23;20469;-69
2023/03/28 03:16:19;;;;;;;5.50;2.70;;;-0.20;99.90;;;;;;6100169;23;20411;-69
2023/03/28 03:18:45;;;;;;;5.33;1.93;;;-0.20;99.90;;;;;;6124322;23;20389;-68
2023/03/28 03:21:11;;;;;;;6.37;2.50;;;-0.20;99.90;;;;;;6100100;23;20631;-68
2023/03/28 03:23:40;;;;;;;6.53;1.93;;;-0.20;99.90;;;;;;6099260;23;20447;-68
2023/03/28 03:26:06;;;;;;;6.90;2.07;;;-0.20;99.90;;;;;;6098536;23;20422;-68
2023/03/28 03:28:50;;;;;;;4.23;2.50;;;-0.20;99.90;;;;;;6123614;23;20339;-68
2023/03/28 03:31:18;;;;;;;8.20;2.37;;;-0.20;99.90;;;;;;6101619;23;20752;-70
2023/03/28 03:34:03;;;;;;;7.20;1.90;;;-0.20;99.90;;;;;;6104812;23;20733;-68
2023/03/28 03:36:33;;;;;;;9.03;2.00;;;-0.20;99.90;;;;;;6104654;23;20390;-69
2023/03/28 03:38:59;;;;;;;6.33;2.67;;;-0.20;99.90;;;;;;6105841;23;20634;-68
2023/03/28 03:41:25;;;;;;;9.77;2.57;;;-0.20;99.90;;;;;;6129309;23;20207;-68
2023/03/28 03:43:51;;;;;;;6.20;2.40;;;-0.20;99.90;;;;;;6102926;23;20144;-69
2023/03/28 03:46:18;;;;;;;3.93;1.63;;;-0.30;99.90;;;;;;6078699;23;20223;-68
2023/03/28 03:48:46;;;;;;;11.30;2.60;;;-0.30;99.90;;;;;;6125209;23;20148;-68
2023/03/28 03:51:12;;;;;;;5.23;1.90;;;-0.30;99.90;;;;;;6099183;23;20458;-69
2023/03/28 03:53:38;;;;;;;3.70;2.20;;;-0.30;99.90;;;;;;6105561;23;20776;-68
2023/03/28 03:56:09;;;;;;;4.90;1.60;;;-0.30;99.90;;;;;;6099237;23;20228;-68
2023/03/28 03:58:50;;;;;;;7.20;2.93;;;-0.30;99.90;;;;;;6099151;23;20670;-69
2023/03/28 04:01:15;;;;;;;7.80;2.63;;;-0.30;99.90;;;;;;6100280;23;20413;-69
2023/03/28 04:03:42;;;;;;;5.40;2.73;;;-0.30;99.90;;;;;;6112859;23;20566;-69
2023/03/28 04:06:08;;;;;;;3.33;1.77;;;-0.20;99.90;;;;;;6126210;23;20164;-68
2023/03/28 04:08:35;;;;;;;6.03;3.10;;;-0.30;99.90;;;;;;6127245;23;20841;-69
2023/03/28 04:11:02;;;;;;;6.10;3.40;;;-0.30;99.90;;;;;;6104599;23;20388;-69
2023/03/28 04:13:33;;;;;;;8.43;2.87;;;-0.30;99.90;;;;;;6130289;23;20492;-69
2023/03/28 04:16:01;;;;;;;8.47;4.17;;;-0.30;99.90;;;;;;6080526;23;20392;-69
2023/03/28 04:18:44;;;;;;;7.17;3.30;;;-0.20;99.90;;;;;;6104141;23;20385;-71
2023/03/28 04:21:11;;;;;;;6.50;3.57;;;-0.30;99.90;;;;;;6103615;23;20420;-69
2023/03/28 04:23:42;;;;;;;7.03;1.90;;;-0.30;99.90;;;;;;6112855;23;20904;-68
2023/03/28 04:26:24;;;;;;;7.90;2.03;;;-0.30;99.90;;;;;;6137675;23;20377;-69
2023/03/28 04:28:59;;;;;;;8.87;3.30;;;-0.40;99.90;;;;;;6113153;23;20384;-69
2023/03/28 04:31:28;;;;;;;7.23;2.97;;;-0.40;99.90;;;;;;6114095;23;20468;-70
2023/03/28 04:34:12;;;;;;;4.80;2.60;;;-0.40;99.90;;;;;;6115694;23;20416;-72
2023/03/28 04:36:50;;;;;;;11.23;3.47;;;-0.40;99.90;;;;;;6102595;23;20459;-69
2023/03/28 04:39:15;;;;;;;5.03;2.37;;;-0.30;99.90;;;;;;6113708;23;20369;-69
2023/03/28 04:42:02;;;;;;;5.07;2.57;;;-0.30;99.90;;;;;;6102211;23;20211;-68
2023/03/28 04:45:01;;;;;;;7.70;3.03;;;-0.30;99.90;;;;;;6127020;23;20735;-70
2023/03/28 04:47:27;;;;;;;9.87;3.60;;;-0.40;99.90;;;;;;6130058;23;20384;-70
2023/03/28 04:49:53;;;;;;;7.10;3.03;;;-0.40;99.90;;;;;;6114936;23;20467;-69
2023/03/28 04:52:19;;;;;;;5.23;3.43;;;-0.40;99.90;;;;;;6127925;23;20441;-70
2023/03/28 04:54:46;;;;;;;9.07;3.33;;;-0.40;99.90;;;;;;6105156;23;20401;-70
2023/03/28 04:57:14;;;;;;;11.30;4.87;;;-0.40;99.90;;;;;;6114947;23;20424;-69
2023/03/28 04:59:42;;;;;;;11.70;4.93;;;-0.40;99.90;;;;;;6128027;23;20391;-69
2023/03/28 05:02:10;;;;;;;10.00;3.97;;;-0.40;99.90;;;;;;6104505;23;20452;-70
2023/03/28 05:04:42;;;;;;;7.10;3.80;;;-0.40;99.90;;;;;;6128979;23;20385;-70
2023/03/28 05:07:08;;;;;;;11.77;3.77;;;-0.30;99.90;;;;;;6116575;23;20383;-71
2023/03/28 05:09:33;;;;;;;3.93;2.60;;;-0.40;99.90;;;;;;6108840;23;20412;-69
2023/03/28 05:11:59;;;;;;;8.47;3.40;;;-0.40;99.90;;;;;;6111917;23;20690;-71
2023/03/28 05:14:25;;;;;;;5.10;2.00;;;-0.50;99.90;;;;;;6110694;23;20914;-70
2023/03/28 05:17:04;;;;;;;6.00;3.07;;;-0.40;99.90;;;;;;6107238;23;20164;-70
2023/03/28 05:20:09;;;;;;;5.50;2.73;;;-0.50;99.90;;;;;;6105601;23;20391;-71
2023/03/28 05:22:45;;;;;;;8.03;3.43;;;-0.50;99.90;;;;;;6107760;23;20414;-71
2023/03/28 05:25:10;;;;;;;5.87;2.90;;;-0.50;99.90;;;;;;6109356;23;20443;-71
2023/03/28 05:27:38;;;;;;;6.13;2.90;;;-0.40;99.90;;;;;;6110954;23;20169;-70
2023/03/28 05:30:06;;;;;;;14.40;3.47;;;-0.40;99.90;;;;;;6109402;23;20375;-71
2023/03/28 05:32:33;;;;;;;7.53;3.20;;;-0.40;99.90;;;;;;6133332;23;20428;-72
2023/03/28 05:34:59;;;;;;;6.83;3.33;;;-0.30;99.90;;;;;;6107993;23;20390;-71
2023/03/28 05:37:29;;;;;;;7.13;3.17;;;-0.20;99.90;;;;;;6134002;23;20389;-72
2023/03/28 05:39:55;;;;;;;8.83;2.90;;;-0.10;99.90;;;;;;6108149;23;20420;-71
2023/03/28 05:42:21;;;;;;;6.93;3.40;;;-0.10;99.90;;;;;;6086599;23;20441;-71
2023/03/28 05:44:46;;;;;;;3.97;2.10;;;-0.10;99.90;;;;;;6085729;23;20144;-73
2023/03/28 05:47:27;;;;;;;7.23;2.77;;;-0.10;99.90;;;;;;6121483;23;20428;-71
2023/03/28 05:49:53;;;;;;;6.40;2.93;;;0.00;99.90;;;;;;6061604;23;20396;-72
2023/03/28 05:52:20;;;;;;;5.07;2.80;;;0.00;99.90;;;;;;6109098;23;20820;-73
2023/03/28 05:54:47;;;;;;;8.07;4.03;;;0.10;99.90;;;;;;6108751;23;20406;-71
2023/03/28 05:57:16;;;;;;;6.30;3.07;;;0.20;99.90;;;;;;6131949;23;20384;-71
2023/03/28 05:59:42;;;;;;;8.33;3.30;;;0.30;99.90;;;;;;6107439;23;20360;-72
2023/03/28 06:02:12;;;;;;;8.23;3.73;;;0.40;99.90;;;;;;6106513;23;20428;-71
2023/03/28 06:04:41;;;;;;;8.83;3.67;;;0.50;99.90;;;;;;6108711;23;20389;-72
2023/03/28 06:07:12;;;;;;;8.33;3.60;;;0.50;99.90;;;;;;6111312;23;20384;-70
2023/03/28 06:09:39;;;;;;;7.93;2.77;;;0.70;99.90;;;;;;6107377;23;20404;-71
2023/03/28 06:12:06;;;;;;;5.60;2.87;;;0.90;99.90;;;;;;6109911;23;20464;-74
2023/03/28 06:14:34;;;;;;;4.10;2.60;;;1.00;99.90;;;;;;6109101;23;20385;-71
2023/03/28 06:17:03;;;;;;;7.80;3.30;;;1.10;99.90;;;;;;6106945;23;20408;-70
2023/03/28 06:19:37;;;;;;;6.90;3.33;;;1.30;99.90;;;;;;6131143;23;20376;-72
2023/03/28 06:22:03;;;;;;;6.90;3.03;;;1.40;99.90;;;;;;6108741;23;20396;-71
2023/03/28 06:24:29;;;;;;;5.03;3.80;;;1.50;99.90;;;;;;6107631;23;20849;-70
2023/03/28 06:26:55;;;;;;;9.60;4.10;;;1.60;99.90;;;;;;6110287;23;20384;-72
2023/03/28 06:29:23;;;;;;;13.27;4.63;;;1.70;99.90;;;;;;6109390;23;20388;-71
2023/03/28 06:31:59;;;;;;;11.20;4.60;;;1.80;99.90;;;;;;6085625;23;20404;-72
2023/03/28 06:34:26;;;;;;;13.00;3.80;;;1.90;99.90;;;;;;6134736;23;20428;-73
2023/03/28 06:36:58;;;;;;;8.40;4.73;;;1.90;99.90;;;;;;6087814;23;20397;-72
2023/03/28 06:39:28;;;;;;;9.37;4.50;;;1.90;99.90;;;;;;6089221;23;20488;-72
2023/03/28 06:41:57;;;;;;;11.17;4.50;;;2.00;99.90;;;;;;6085397;23;20408;-70
2023/03/28 06:44:31;;;;;;;17.00;3.70;;;2.00;99.90;;;;;;6110884;23;20395;-71
2023/03/28 06:47:15;;;;;;;9.40;3.70;;;2.10;99.90;;;;;;6124067;23;20372;-71
2023/03/28 06:49:41;;;;;;;9.87;4.90;;;2.20;99.90;;;;;;6114415;23;20444;-71
2023/03/28 06:52:39;;;;;;;10.70;4.90;;;2.20;99.90;;;;;;6107210;23;20734;-73
2023/03/28 06:55:08;;;;;;;7.53;4.13;;;2.30;99.90;;;;;;6112159;23;20409;-71
2023/03/28 06:57:34;;;;;;;6.93;3.90;;;2.30;99.90;;;;;;6110907;23;20415;-74
2023/03/28 07:00:11;;;;;;;9.60;3.20;;;2.50;99.90;;;;;;6113151;23;20392;-73
2023/03/28 07:02:57;;;;;;;5.73;2.57;;;2.40;99.90;;;;;;6110599;23;20436;-71
2023/03/28 07:05:22;;;;;;;9.33;3.73;;;2.40;99.90;;;;;;6135131;23;20388;-73
2023/03/28 07:07:53;;;;;;;9.20;3.80;;;2.50;99.90;;;;;;6087754;23;20177;-72
2023/03/28 07:10:21;;;;;;;4.70;2.60;;;2.50;99.90;;;;;;6033126;23;20448;-72
2023/03/28 07:12:47;;;;;;;4.90;2.23;;;2.70;99.90;;;;;;6057297;23;20469;-72
2023/03/28 07:15:12;;;;;;;3.27;2.40;;;2.70;99.90;;;;;;6079225;23;20508;-69
2023/03/28 07:17:39;;;;;;;5.10;2.50;;;2.80;99.90;;;;;;6090569;23;20370;-72
2023/03/28 07:20:05;;;;;;;5.53;3.20;;;2.90;99.90;;;;;;6080038;23;20160;-70
2023/03/28 07:22:31;;;;;;;3.90;2.20;;;2.90;99.90;;;;;;6055993;23;20473;-70
2023/03/28 07:24:56;;;;;;;10.63;4.17;;;3.00;99.90;;;;;;6057604;23;20396;-72
2023/03/28 07:27:23;;;;;;;9.13;3.00;;;3.00;99.90;;;;;;6054359;23;20168;-71
2023/03/28 07:29:50;;;;;;;10.70;4.00;;;3.10;99.90;;;;;;6080087;23;20386;-71
2023/03/28 07:32:17;;;;;;;9.67;3.80;;;3.20;99.90;;;;;;6057337;23;20404;-71
2023/03/28 07:34:44;;;;;;;7.23;3.60;;;3.30;99.90;;;;;;6061058;23;20382;-71
2023/03/28 07:37:16;;;;;;;9.80;4.00;;;3.40;99.90;;;;;;6061588;23;20370;-73
2023/03/28 07:40:09;;;;;;;6.80;3.60;;;3.50;99.90;;;;;;6080687;23;20408;-73
2023/03/28 07:42:36;;;;;;;9.53;3.40;;;3.60;99.90;;;;;;6060253;23;20441;-72
2023/03/28 07:45:02;;;;;;;10.07;4.13;;;3.70;99.90;;;;;;6058586;23;20439;-72
2023/03/28 07:47:29;;;;;;;7.00;3.13;;;3.90;99.90;;;;;;6076596;23;20518;-72
2023/03/28 07:49:56;;;;;;;7.77;3.47;;;4.00;99.90;;;;;;6111688;23;20156;-72
2023/03/28 07:52:22;;;;;;;9.40;3.93;;;4.10;99.90;;;;;;6134165;23;20413;-71
2023/03/28 07:54:48;;;;;;;7.97;3.30;;;4.20;99.90;;;;;;6114119;23;20391;-73
2023/03/28 07:57:14;;;;;;;8.90;3.70;;;4.20;99.90;;;;;;6136665;23;20145;-73
2023/03/28 07:59:51;;;;;;;8.83;4.50;;;4.30;99.80;;;;;;6072075;23;20153;-73
2023/03/28 08:02:17;;;;;;;6.80;3.67;;;4.40;99.60;;;;;;6113086;23;20428;-72
2023/03/28 08:04:43;;;;;;;11.23;3.53;;;4.40;99.60;;;;;;6120060;23;20149;-71
2023/03/28 08:07:27;;;;;;;11.47;4.80;;;4.50;99.50;;;;;;6111249;23;20373;-71
2023/03/28 08:09:52;;;;;;;10.20;3.40;;;4.60;98.60;;;;;;6098753;23;20388;-71
2023/03/28 08:12:25;;;;;;;8.77;3.30;;;4.60;97.60;;;;;;6119521;23;20838;-72
2023/03/28 08:14:51;;;;;;;7.13;2.53;;;4.70;97.40;;;;;;6110938;23;20388;-73
2023/03/28 08:17:21;;;;;;;5.50;3.57;;;4.70;97.40;;;;;;6112616;23;20381;-71
2023/03/28 08:19:48;;;;;;;9.40;3.60;;;4.80;96.60;;;;;;6129972;23;20373;-71
2023/03/28 08:22:27;;;;;;;12.00;4.83;;;5.00;96.10;;;;;;6127440;23;20817;-72
2023/03/28 08:25:15;;;;;;;9.17;3.40;;;5.00;94.60;;;;;;6140161;23;20814;-73
2023/03/28 08:27:46;;;;;;;11.60;3.50;;;5.00;93.70;;;;;;6104395;23;20381;-72
2023/03/28 08:30:13;;;;;;;9.53;3.50;;;5.10;93.90;;;;;;6048161;23;20452;-73
2023/03/28 08:32:56;;;;;;;8.37;3.37;;;5.20;95.00;;;;;;6121070;23;20452;-71
2023/03/28 08:35:25;;;;;;;8.33;3.20;;;5.40;94.00;;;;;;6093376;23;20440;-73
2023/03/28 08:37:56;;;;;;;6.93;3.27;;;5.50;93.20;;;;;;6047275;23;20385;-72
2023/03/28 08:40:26;;;;;;;6.27;2.60;;;5.60;93.20;;;;;;6065748;23;20404;-71
2023/03/28 08:43:20;;;;;;;4.83;2.60;;;5.70;92.00;;;;;;6084908;23;20501;-73
2023/03/28 08:45:55;;;;;;;8.13;3.60;;;5.90;91.00;;;;;;6059141;23;20861;-71
2023/03/28 08:48:25;;;;;;;6.93;2.60;;;6.00;86.30;;;;;;6092205;23;20384;-71
2023/03/28 08:51:10;;;;;;;7.03;2.13;;;6.10;85.90;;;;;;6080510;23;20398;-72
2023/03/28 08:53:42;;;;;;;8.40;3.10;;;6.30;83.00;;;;;;6091665;23;20410;-72
2023/03/28 08:56:08;;;;;;;5.83;2.70;;;6.40;82.10;;;;;;6082780;23;20385;-72
2023/03/28 08:58:57;;;;;;;5.93;2.53;;;6.50;80.90;;;;;;6059714;23;20373;-75
2023/03/28 09:01:28;;;;;;;8.40;2.90;;;6.70;78.40;;;;;;6033782;23;20416;-74
2023/03/28 09:03:54;;;;;;;7.20;2.80;;;6.80;76.00;;;;;;6003032;23;20395;-71
2023/03/28 09:06:41;;;;;;;5.40;2.50;;;6.90;62.30;;;;;;6032809;23;20423;-71
2023/03/28 09:09:21;;;;;;;10.80;4.10;;;7.00;60.90;;;;;;6059285;23;20390;-71
2023/03/28 09:12:28;;;;;;;3.73;1.77;;;7.20;60.00;;;;;;6039478;23;20432;-73
2023/03/28 09:15:26;;;;;;;4.37;2.80;;;7.40;60.60;;;;;;6063319;23;20401;-73
2023/03/28 09:18:27;;;;;;;8.50;3.87;;;7.50;59.20;;;;;;6015350;23;20378;-72
2023/03/28 09:21:30;;;;;;;6.70;2.73;;;7.60;58.50;;;;;;6058751;23;20870;-72
2023/03/28 09:24:32;;;;;;;12.33;4.07;;;7.60;57.20;;;;;;6037782;23;20875;-72
2023/03/28 09:27:28;;;;;;;7.67;2.80;;;7.70;56.90;;;;;;6085669;23;20446;-73
2023/03/28 09:30:26;;;;;;;7.60;2.40;;;7.90;57.80;;;;;;6063227;23;20409;-73
2023/03/28 09:32:59;;;;;;;3.60;2.17;;;7.90;57.70;;;;;;6069954;23;20429;-72
2023/03/28 09:35:27;;;;;;;8.53;2.03;;;8.00;57.20;;;;;;6042291;23;20389;-72
2023/03/28 09:38:02;;;;;;;4.03;2.00;;;8.10;57.80;;;;;;6041054;23;20386;-73
2023/03/28 09:40:31;;;;;;;8.53;2.80;;;8.20;57.30;;;;;;6063517;23;20393;-74
2023/03/28 09:43:44;;;;;;;6.60;2.50;;;8.20;55.50;;;;;;6099662;23;20374;-74
2023/03/28 09:46:42;;;;;;;4.77;1.80;;;8.30;54.40;;;;;;6089855;23;20425;-73
2023/03/28 09:49:26;;;;;;;5.07;2.43;;;8.40;53.30;;;;;;6063937;23;20378;-74
2023/03/28 09:52:02;;;;;;;7.13;2.30;;;8.50;52.60;;;;;;6060292;23;20496;-72
2023/03/28 09:54:34;;;;;;;5.23;1.30;;;8.70;51.30;;;;;;5992507;23;20405;-73
2023/03/28 09:57:03;;;;;;;9.17;1.77;;;8.60;49.60;;;;;;6063751;23;20409;-74
2023/03/28 10:02:42;;;;;;;12.10;2.07;;;8.80;47.20;;;;;;6130910;23;20450;-73
2023/03/28 10:05:32;;;;;;;3.23;1.37;;;8.90;46.30;;;;;;6157695;23;20403;-73
2023/03/28 10:08:27;;;;;;;5.83;2.43;;;8.90;45.80;;;;;;6149546;23;20386;-73
2023/03/28 10:11:18;;;;;;;3.00;1.70;;;9.00;46.40;;;;;;6123107;23;20386;-73
2023/03/28 10:13:49;;;;;;;3.43;1.20;;;9.10;46.80;;;;;;6100251;23;20444;-73
2023/03/28 10:16:28;;;;;;;3.57;1.73;;;9.20;46.10;;;;;;6100593;23;20372;-72
2023/03/28 10:19:22;;;;;;;4.87;1.40;;;9.30;44.70;;;;;;6141115;23;20410;-73
2023/03/28 10:21:56;;;;;;;4.23;1.30;;;9.20;42.60;;;;;;6100159;23;20403;-72
2023/03/28 10:24:28;;;;;;;4.80;2.50;;;9.20;43.00;;;;;;6147798;23;20407;-73
2023/03/28 10:27:26;;;;;;;4.20;1.90;;;9.30;43.20;;;;;;6147180;23;20380;-72
2023/03/28 10:30:13;;;;;;;3.50;1.30;;;9.50;43.50;;;;;;6037818;23;20407;-73
2023/03/28 10:32:40;;;;;;;6.10;1.53;;;9.80;44.00;;;;;;6059542;23;20434;-73
2023/03/28 10:35:26;;;;;;;5.60;1.67;;;9.90;43.20;;;;;;6037504;23;20409;-72
2023/03/28 10:38:04;;;;;;;4.53;2.07;;;10.00;42.00;;;;;;6016282;23;20394;-73
2023/03/28 10:41:08;;;;;;;5.73;1.63;;;9.90;43.10;;;;;;6060630;23;20487;-73
2023/03/28 10:43:54;;;;;;;5.67;1.37;;;10.00;42.00;;;;;;6017791;23;20530;-73
2023/03/28 10:46:39;;;;;;;4.23;1.20;;;9.90;43.60;;;;;;6069190;23;20382;-72
2023/03/28 10:49:30;;;;;;;2.73;1.00;;;10.00;42.40;;;;;;6036292;23;20382;-73
2023/03/28 10:52:31;;;;;;;3.23;1.50;;;10.00;42.40;;;;;;6035304;23;20454;-73
2023/03/28 10:55:06;;;;;;;3.07;1.40;;;10.20;42.20;;;;;;6038414;23;20390;-73
2023/03/28 10:58:11;;;;;;;5.13;4.17;;;10.30;41.60;;;;;;6034149;23;20378;-73
2023/03/28 11:01:10;;;;;;;3.23;1.27;;;10.30;41.70;;;;;;6032809;23;20398;-72
2023/03/28 11:04:15;;;;;;;5.13;1.30;;;10.30;41.00;;;;;;6005110;23;20402;-73
2023/03/28 11:06:56;;;;;;;3.43;1.23;;;10.40;40.50;;;;;;6057243;23;20734;-73
2023/03/28 11:09:48;;;;;;;4.23;1.50;;;10.50;40.00;;;;;;6122101;23;20386;-72
2023/03/28 11:13:31;;;;;;;6.70;1.70;;;10.50;39.40;;;;;;6142795;23;20458;-72
2023/03/28 11:16:41;;;;;;;4.17;2.03;;;10.60;38.70;;;;;;6097620;23;20451;-71
2023/03/28 11:19:52;;;;;;;2.70;1.87;;;11.00;38.70;;;;;;6105411;23;20419;-73
2023/03/28 11:22:30;;;;;;;5.87;1.67;;;11.10;37.60;;;;;;6123865;23;20411;-73
2023/03/28 11:25:19;;;;;;;4.00;1.40;;;11.10;38.20;;;;;;6123190;23;20379;-74
2023/03/28 11:28:25;;;;;;;3.60;1.33;;;11.30;37.60;;;;;;6140750;23;20374;-74
2023/03/28 11:31:00;;;;;;;4.90;1.63;;;11.40;38.00;;;;;;6126142;23;20391;-73
2023/03/28 11:33:54;;;;;;;3.70;1.33;;;11.60;36.80;;;;;;6152461;23;20415;-73
2023/03/28 11:36:31;;;;;;;3.27;1.60;;;11.60;36.10;;;;;;6122975;23;20390;-73
2023/03/28 11:39:20;;;;;;;3.30;1.60;;;11.40;36.30;;;;;;6096992;23;20407;-73
2023/03/28 11:41:50;;;;;;;6.00;1.47;;;11.20;36.00;;;;;;6094100;23;20413;-73
2023/03/28 11:44:42;;;;;;;2.50;1.30;;;11.10;36.40;;;;;;6052733;23;20403;-72
2023/03/28 11:47:36;;;;;;;10.93;2.60;;;10.80;36.60;;;;;;6069981;23;20389;-73
2023/03/28 11:50:18;;;;;;;3.73;1.30;;;10.80;37.30;;;;;;6088866;23;20396;-73
2023/03/28 11:53:25;;;;;;;2.23;1.30;;;11.00;37.70;;;;;;6100088;23;20427;-73
2023/03/28 11:56:27;;;;;;;3.00;1.67;;;11.20;37.90;;;;;;6097378;23;20420;-74
2023/03/28 11:59:30;;;;;;;5.50;1.50;;;11.30;36.60;;;;;;6095795;23;20391;-73
2023/03/28 12:02:13;;;;;;;3.60;1.40;;;11.40;36.10;;;;;;6091695;23;20440;-72
2023/03/28 12:04:57;;;;;;;9.23;2.53;;;11.40;36.00;;;;;;6117860;23;20384;-72
2023/03/28 12:08:12;;;;;;;3.93;1.40;;;11.50;36.20;;;;;;6127335;23;20377;-73
2023/03/28 12:10:51;;;;;;;1.87;0.97;;;11.40;36.30;;;;;;5954357;24;20431;-73
2023/03/28 12:13:56;;;;;;;4.23;1.40;;;11.40;36.20;;;;;;6102173;23;20411;-73
2023/03/28 12:16:34;;;;;;;6.10;1.90;;;11.30;35.70;;;;;;6015961;23;20444;-74
2023/03/28 12:19:06;;;;;;;6.60;2.30;;;11.10;36.60;;;;;;6030839;23;20390;-74
2023/03/28 12:22:05;;;;;;;5.37;2.43;;;11.00;36.80;;;;;;6033339;23;20419;-74
2023/03/28 12:25:04;;;;;;;4.23;1.83;;;10.90;37.20;;;;;;6008590;23;20387;-74
2023/03/28 12:28:09;;;;;;;6.80;2.40;;;10.70;37.30;;;;;;6008434;23;20372;-73
2023/03/28 12:30:55;;;;;;;3.20;1.60;;;10.60;38.10;;;;;;6008586;23;20474;-74
2023/03/28 12:33:45;;;;;;;6.80;3.37;;;10.20;38.20;;;;;;6027897;23;20457;-73
2023/03/28 12:36:38;;;;;;;4.50;1.97;;;10.20;39.60;;;;;;6029356;23;20390;-74
2023/03/28 12:39:23;;;;;;;6.87;2.30;;;10.40;40.00;;;;;;5985979;23;20398;-73
2023/03/28 12:41:51;;;;;;;2.27;1.30;;;10.40;40.00;;;;;;6009169;23;20415;-73
2023/03/28 12:44:25;;;;;;;14.93;2.50;;;10.40;40.10;;;;;;6015128;23;20375;-73
2023/03/28 12:47:25;;;;;;;4.47;1.73;;;10.40;39.30;;;;;;6014716;23;20424;-73
2023/03/28 12:50:05;;;;;;;3.97;1.60;;;10.40;39.20;;;;;;5961328;23;20395;-73
2023/03/28 12:52:35;;;;;;;3.97;1.87;;;10.40;39.70;;;;;;6029042;23;20462;-75
2023/03/28 12:55:06;;;;;;;4.43;2.40;;;10.50;39.50;;;;;;6099600;23;20531;-73
2023/03/28 12:57:44;;;;;;;6.97;2.47;;;10.50;39.80;;;;;;6102564;23;20390;-72
2023/03/28 13:00:38;;;;;;;10.47;2.00;;;10.60;39.80;;;;;;6127427;23;20402;-73
2023/03/28 13:03:36;;;;;;;7.10;3.37;;;10.70;39.90;;;;;;6128425;23;20430;-73
2023/03/28 13:06:26;;;;;;;3.67;1.70;;;10.90;39.60;;;;;;6132112;23;20462;-74
2023/03/28 13:15:12;;;;;;;4.47;2.13;;;11.00;37.70;;;;;;6136926;23;20506;-72
2023/03/28 13:17:44;;;;;;;10.03;2.20;;;11.00;37.70;;;;;;6099274;23;20986;-72
2023/03/28 13:20:19;;;;;;;3.10;1.50;;;11.10;37.70;;;;;;6097236;23;20391;-72
2023/03/28 13:22:53;;;;;;;4.87;1.80;;;11.20;37.60;;;;;;6121420;23;20465;-72
2023/03/28 13:25:21;;;;;;;5.33;2.07;;;11.50;37.20;;;;;;6100502;23;20408;-73
2023/03/28 13:27:56;;;;;;;6.00;1.77;;;11.70;36.30;;;;;;6099992;23;20382;-73
2023/03/28 13:30:30;;;;;;;3.03;1.13;;;11.90;35.60;;;;;;6100640;23;20390;-73
2023/03/28 13:33:07;;;;;;;2.50;1.43;;;12.00;35.70;;;;;;6098065;23;20416;-73
2023/03/28 13:35:36;;;;;;;4.43;1.50;;;12.10;35.70;;;;;;6098454;23;20383;-74
2023/03/28 13:38:21;;;;;;;6.23;1.40;;;12.10;35.50;;;;;;6133319;23;20383;-72
2023/03/28 13:41:08;;;;;;;3.03;1.70;;;12.20;35.00;;;;;;6124172;23;20372;-73
2023/03/28 13:43:47;;;;;;;2.37;1.13;;;12.30;34.70;;;;;;6124004;23;20398;-72
2023/03/28 13:46:19;;;;;;;3.33;1.70;;;12.50;34.00;;;;;;6127200;23;20435;-72
2023/03/28 13:49:00;;;;;;;3.80;1.77;;;12.40;34.40;;;;;;6118636;23;20414;-72
2023/03/28 13:51:30;;;;;;;3.63;1.60;;;12.40;34.80;;;;;;6122886;23;20414;-73